Time;durP1;ratioP1;P1;durP2;ratioP2;P2;SDS_P1;SDS_P2;PMS_P1;PMS_P2;Temp;Humidity;BMP_temperature;BMP_pressure;BME280_temperature;BME280_humidity;BME280_pressure;Samples;Min_cycle;Max_cycle;Signal;HPM_P1;HPM_P2
2023/05/05 00:00:22;;;;;;;5.78;3.22;;;;;;;18.99;48.44;101362.25;5058788;28;20072;-61
2023/05/05 00:02:50;;;;;;;5.53;3.47;;;;;;;18.97;48.82;101354.34;5056330;28;20067;-61
2023/05/05 00:05:17;;;;;;;9.82;3.85;;;;;;;18.96;48.74;101366.31;5050836;28;20132;-61
2023/05/05 00:07:45;;;;;;;7.38;3.38;;;;;;;18.95;48.87;101370.13;5047792;28;20068;-62
2023/05/05 00:10:13;;;;;;;4.88;3.28;;;;;;;18.93;48.77;101369.56;5055447;28;20061;-61
2023/05/05 00:12:42;;;;;;;4.78;3.47;;;;;;;18.93;48.77;101371.47;5058108;28;20084;-61
2023/05/05 00:15:10;;;;;;;5.10;3.72;;;;;;;18.91;48.99;101377.19;5063925;28;20136;-61
2023/05/05 00:17:37;;;;;;;5.82;3.80;;;;;;;18.91;49.09;101379.09;5061464;28;20056;-61
2023/05/05 00:20:07;;;;;;;6.32;3.83;;;;;;;18.88;49.30;101383.16;5057481;28;20086;-62
2023/05/05 00:22:35;;;;;;;4.63;3.25;;;;;;;18.88;49.55;101385.06;5057296;28;20059;-61
2023/05/05 00:25:04;;;;;;;6.55;3.55;;;;;;;18.85;49.05;101392.69;5059575;28;20581;-62
2023/05/05 00:27:31;;;;;;;6.75;4.20;;;;;;;18.85;49.42;101398.13;5059753;28;20072;-61
2023/05/05 00:30:00;;;;;;;8.77;4.18;;;;;;;18.84;49.79;101388.31;5048698;28;20055;-61
2023/05/05 00:32:28;;;;;;;5.95;3.53;;;;;;;18.84;49.43;101391.03;5049971;28;20590;-62
2023/05/05 00:34:56;;;;;;;7.10;4.45;;;;;;;18.83;49.57;101380.41;5058090;28;20055;-61
2023/05/05 00:37:23;;;;;;;8.32;4.20;;;;;;;18.81;49.82;101372.50;5048138;28;20239;-61
2023/05/05 00:39:51;;;;;;;8.38;3.83;;;;;;;18.80;50.05;101378.22;5058402;28;20076;-61
2023/05/05 00:42:19;;;;;;;6.10;4.63;;;;;;;18.74;50.46;101393.72;5051579;28;20074;-61
2023/05/05 00:44:47;;;;;;;6.70;3.97;;;;;;;18.77;50.08;101390.47;5045844;28;20044;-61
2023/05/05 00:47:17;;;;;;;5.65;4.07;;;;;;;18.76;49.92;101399.72;5057145;28;20313;-61
2023/05/05 00:49:45;;;;;;;6.80;4.15;;;;;;;18.75;49.93;101383.63;5060781;28;20041;-61
2023/05/05 00:52:13;;;;;;;7.22;4.88;;;;;;;18.74;50.13;101388.25;5057377;28;20128;-61
2023/05/05 00:54:40;;;;;;;6.00;4.15;;;;;;;18.73;50.59;101394.78;5060726;28;20108;-61
2023/05/05 00:57:08;;;;;;;7.70;4.35;;;;;;;18.70;50.35;101389.88;5061954;28;20080;-61
2023/05/05 00:59:37;;;;;;;7.55;5.28;;;;;;;18.69;51.14;101387.41;5058819;28;20064;-61
2023/05/05 01:02:05;;;;;;;7.88;5.10;;;;;;;18.67;50.76;101390.41;5061347;28;20083;-60
2023/05/05 01:04:34;;;;;;;7.60;4.95;;;;;;;18.67;50.60;101390.41;5047562;28;20081;-61
2023/05/05 01:07:12;;;;;;;6.95;4.68;;;;;;;18.66;50.64;101398.81;5049907;28;20077;-62
2023/05/05 01:09:50;;;;;;;5.47;4.28;;;;;;;18.65;50.69;101400.72;5048112;28;20068;-61
2023/05/05 01:12:51;;;;;;;7.40;4.80;;;;;;;18.65;50.40;101410.81;5056274;28;20063;-61
2023/05/05 01:15:28;;;;;;;7.05;4.40;;;;;;;18.63;50.36;101413.78;5050844;28;20152;-61
2023/05/05 01:18:02;;;;;;;6.05;4.43;;;;;;;18.61;50.67;101405.06;5055862;28;20438;-62
2023/05/05 01:20:38;;;;;;;7.18;4.60;;;;;;;18.61;50.47;101407.78;5059371;28;20147;-63
2023/05/05 01:23:09;;;;;;;10.15;4.60;;;;;;;18.60;50.96;101405.28;5048118;28;20057;-62
2023/05/05 01:26:12;;;;;;;7.88;5.07;;;;;;;18.57;50.73;101403.91;5051573;28;20207;-62
2023/05/05 01:29:07;;;;;;;6.82;4.70;;;;;;;18.54;50.80;101391.63;5058885;28;20072;-63
2023/05/05 01:31:51;;;;;;;8.52;4.90;;;;;;;18.53;50.62;101384.56;5060018;28;20391;-62
2023/05/05 01:34:24;;;;;;;5.35;3.85;;;;;;;18.52;50.62;101380.19;5055961;28;20053;-61
2023/05/05 01:37:03;;;;;;;7.07;4.35;;;;;;;18.51;51.30;101388.63;5047443;28;20053;-61
2023/05/05 01:39:34;;;;;;;9.27;5.50;;;;;;;18.48;51.95;101387.25;5051725;28;20120;-63
2023/05/05 01:42:06;;;;;;;6.75;5.38;;;;;;;18.45;51.73;101379.59;5044053;28;20586;-62
2023/05/05 01:44:36;;;;;;;7.07;5.13;;;;;;;18.44;51.98;101385.31;5047089;28;20049;-61
2023/05/05 01:47:06;;;;;;;10.45;6.80;;;;;;;18.42;51.79;101380.13;5049611;28;20117;-62
2023/05/05 01:49:36;;;;;;;6.88;5.45;;;;;;;18.42;51.68;101395.63;5056340;28;20037;-62
2023/05/05 01:52:05;;;;;;;7.53;5.43;;;;;;;18.39;51.56;101393.44;5054048;28;20120;-62
2023/05/05 01:54:34;;;;;;;10.30;5.40;;;;;;;18.38;51.66;101399.94;5043327;28;20056;-62
2023/05/05 01:57:04;;;;;;;6.35;4.85;;;;;;;18.37;51.72;101396.41;5057980;28;20128;-62
2023/05/05 01:59:33;;;;;;;11.93;4.95;;;;;;;18.35;51.67;101403.19;5051715;28;20109;-62
2023/05/05 02:02:03;;;;;;;8.88;6.03;;;;;;;18.35;52.06;101400.47;5051430;28;20049;-62
2023/05/05 02:04:33;;;;;;;6.50;4.85;;;;;;;18.34;51.61;101402.38;5057458;28;20071;-62
2023/05/05 02:07:03;;;;;;;7.55;4.55;;;;;;;18.33;52.06;101410.78;5051787;28;20056;-62
2023/05/05 02:09:32;;;;;;;9.30;5.40;;;;;;;18.33;51.80;101411.63;5052359;28;20044;-62
2023/05/05 02:12:01;;;;;;;9.05;5.30;;;;;;;18.31;51.62;101411.06;5052355;28;20037;-62
2023/05/05 02:14:30;;;;;;;6.82;4.70;;;;;;;18.31;51.46;101410.22;5047712;28;20053;-62
2023/05/05 02:16:58;;;;;;;5.50;4.30;;;;;;;18.29;51.14;101404.22;5048441;28;20128;-61
2023/05/05 02:19:31;;;;;;;6.65;4.75;;;;;;;18.28;51.37;101405.31;5056698;28;20073;-62
2023/05/05 02:22:00;;;;;;;6.22;4.20;;;;;;;18.27;51.27;101409.94;5046300;28;20057;-61
2023/05/05 02:24:29;;;;;;;7.88;4.60;;;;;;;18.27;51.75;101417.28;5047718;28;20311;-62
2023/05/05 02:26:59;;;;;;;5.43;3.90;;;;;;;18.25;51.52;101419.44;5047257;28;20052;-62
2023/05/05 02:29:31;;;;;;;6.60;4.60;;;;;;;18.24;51.54;101424.06;5058764;28;20145;-62
2023/05/05 02:32:03;;;;;;;6.90;5.18;;;;;;;18.21;51.87;101419.94;5053477;28;20045;-62
2023/05/05 02:34:35;;;;;;;7.65;4.57;;;;;;;18.21;51.44;101430.84;5046552;28;20052;-62
2023/05/05 02:37:09;;;;;;;8.05;4.65;;;;;;;18.20;51.51;101422.94;5049321;28;20040;-62
2023/05/05 02:39:42;;;;;;;5.63;4.28;;;;;;;18.18;51.58;101425.09;5050620;28;20072;-62
2023/05/05 02:42:16;;;;;;;7.05;4.60;;;;;;;18.16;51.68;101430.78;5050413;28;20041;-61
2023/05/05 02:44:46;;;;;;;6.97;4.63;;;;;;;18.16;51.70;101438.13;5048683;28;20302;-61
2023/05/05 02:47:13;;;;;;;7.47;5.05;;;;;;;18.14;52.03;101446.53;5043360;28;20088;-62
2023/05/05 02:49:42;;;;;;;7.00;5.22;;;;;;;18.12;51.87;101442.44;5057572;28;20085;-62
2023/05/05 02:52:11;;;;;;;6.30;4.80;;;;;;;18.11;52.17;101449.78;5050668;28;20357;-62
2023/05/05 02:54:39;;;;;;;7.57;4.68;;;;;;;18.10;52.09;101444.59;5058261;28;20045;-62
2023/05/05 02:57:10;;;;;;;6.63;5.20;;;;;;;18.08;52.01;101438.59;5046755;28;20388;-62
2023/05/05 02:59:46;;;;;;;10.82;5.50;;;;;;;18.04;52.09;101432.84;5052308;28;20116;-62
2023/05/05 03:02:18;;;;;;;6.53;4.97;;;;;;;18.03;52.09;101442.09;5048466;28;20053;-62
2023/05/05 03:04:50;;;;;;;6.97;5.32;;;;;;;18.01;52.35;101435.25;5056222;28;20053;-62
2023/05/05 03:07:25;;;;;;;7.05;5.22;;;;;;;17.99;52.19;101432.78;5056174;28;20124;-61
2023/05/05 03:10:00;;;;;;;8.27;5.40;;;;;;;17.97;51.99;101434.94;5050397;28;20126;-61
2023/05/05 03:12:36;;;;;;;7.72;5.03;;;;;;;17.95;52.32;101426.22;5046638;28;20053;-61
2023/05/05 03:15:05;;;;;;;6.30;5.57;;;;;;;17.94;52.32;101438.19;5046610;28;20061;-61
2023/05/05 03:17:35;;;;;;;7.05;5.53;;;;;;;17.92;52.45;101437.63;5057369;28;20109;-61
2023/05/05 03:20:05;;;;;;;6.88;5.10;;;;;;;17.91;52.31;101446.03;5051345;28;20065;-62
2023/05/05 03:22:37;;;;;;;9.98;5.88;;;;;;;17.88;52.53;101448.19;5060198;28;20056;-61
2023/05/05 03:25:06;;;;;;;6.97;5.07;;;;;;;17.86;52.33;101453.06;5048376;28;20107;-61
2023/05/05 03:27:33;;;;;;;8.13;5.40;;;;;;;17.85;52.50;101456.03;5042528;28;20175;-61
2023/05/05 03:30:01;;;;;;;6.78;5.13;;;;;;;17.83;52.61;101459.00;5052110;28;20137;-61
2023/05/05 03:32:29;;;;;;;8.30;5.43;;;;;;;17.82;52.46;101467.41;5051726;28;20296;-61
2023/05/05 03:34:57;;;;;;;6.47;5.25;;;;;;;17.80;52.74;101466.84;5060087;28;20041;-62
2023/05/05 03:37:25;;;;;;;7.22;5.45;;;;;;;17.78;52.50;101463.56;5049820;28;20075;-61
2023/05/05 03:39:54;;;;;;;5.53;4.70;;;;;;;17.76;52.51;101458.38;5059752;28;20049;-62
2023/05/05 03:42:22;;;;;;;7.68;4.47;;;;;;;17.73;52.57;101453.44;5050175;28;20041;-61
2023/05/05 03:44:52;;;;;;;7.93;4.75;;;;;;;17.72;52.36;101459.16;5056715;28;20053;-62
2023/05/05 03:47:20;;;;;;;6.72;5.05;;;;;;;17.71;52.63;101463.75;5055904;28;20076;-62
2023/05/05 03:49:47;;;;;;;6.43;4.88;;;;;;;17.69;52.48;101473.25;5052447;28;20426;-62
2023/05/05 03:52:15;;;;;;;8.30;4.82;;;;;;;17.68;52.42;101468.88;5056577;28;20161;-62
2023/05/05 03:54:44;;;;;;;7.22;4.95;;;;;;;17.67;52.46;101469.97;5059786;28;20522;-61
2023/05/05 03:57:14;;;;;;;5.63;4.60;;;;;;;17.66;52.37;101466.41;5059587;28;20084;-62
2023/05/05 03:59:41;;;;;;;6.45;4.35;;;;;;;17.64;52.40;101468.53;5057428;28;20049;-62
2023/05/05 04:02:09;;;;;;;6.25;4.50;;;;;;;17.63;52.45;101469.63;5058208;28;20117;-62
2023/05/05 04:04:37;;;;;;;5.75;4.43;;;;;;;17.62;52.29;101470.69;5049417;28;20300;-61
2023/05/05 04:07:04;;;;;;;7.82;5.88;;;;;;;17.60;52.25;101483.72;5052326;28;20064;-61
2023/05/05 04:09:32;;;;;;;6.38;4.85;;;;;;;17.58;52.36;101475.81;5052207;28;20056;-61
2023/05/05 04:12:01;;;;;;;6.55;4.45;;;;;;;17.58;52.41;101475.00;5057684;28;20080;-62
2023/05/05 04:14:30;;;;;;;5.82;4.20;;;;;;;17.57;52.33;101481.50;5059277;28;20059;-62
2023/05/05 04:16:58;;;;;;;5.55;4.38;;;;;;;17.56;52.36;101479.84;5055726;28;20049;-62
2023/05/05 04:19:26;;;;;;;5.70;4.25;;;;;;;17.53;52.34;101478.47;5053981;28;20049;-62
2023/05/05 04:21:54;;;;;;;5.82;4.32;;;;;;;17.52;52.35;101479.53;5054228;28;20093;-62
2023/05/05 04:24:23;;;;;;;6.40;4.40;;;;;;;17.52;52.46;101478.72;5053593;28;20133;-62
2023/05/05 04:26:51;;;;;;;6.57;4.95;;;;;;;17.50;52.36;101480.88;5053722;28;20532;-62
2023/05/05 04:29:19;;;;;;;7.40;3.63;;;;;;;17.48;52.50;101474.88;4703267;28;10000626;-61
2023/05/05 04:31:48;;;;;;;6.35;4.25;;;;;;;17.46;52.24;101477.00;5047966;28;20104;-61
2023/05/05 04:34:16;;;;;;;6.40;4.85;;;;;;;17.45;52.55;101491.66;5048511;28;20107;-62
2023/05/05 04:36:44;;;;;;;5.57;3.75;;;;;;;17.43;52.47;101491.91;5055937;28;20107;-62
2023/05/05 04:39:12;;;;;;;5.25;4.30;;;;;;;17.42;52.35;101489.47;5051761;28;20117;-62
2023/05/05 04:41:39;;;;;;;6.05;4.07;;;;;;;17.40;52.36;101483.44;5045766;28;20056;-61
2023/05/05 04:44:07;;;;;;;6.70;4.30;;;;;;;17.39;52.38;101487.25;5050599;28;20502;-62
2023/05/05 04:46:35;;;;;;;6.97;4.10;;;;;;;17.37;52.61;101482.06;5054463;28;20072;-62
2023/05/05 04:49:04;;;;;;;5.57;4.30;;;;;;;17.35;52.60;101484.19;5054406;28;20041;-62
2023/05/05 04:51:32;;;;;;;5.43;4.10;;;;;;;17.35;52.57;101488.81;5041887;28;20076;-62
2023/05/05 04:54:00;;;;;;;5.93;4.22;;;;;;;17.33;52.58;101485.56;5053431;28;20057;-61
2023/05/05 04:56:30;;;;;;;6.15;3.97;;;;;;;17.29;52.81;101481.69;5052488;28;20059;-61
2023/05/05 04:58:58;;;;;;;5.05;3.72;;;;;;;17.29;52.60;101474.38;5052177;28;20124;-62
2023/05/05 05:01:25;;;;;;;5.88;4.10;;;;;;;17.26;52.75;101468.63;5054853;28;20053;-62
2023/05/05 05:03:53;;;;;;;6.57;4.50;;;;;;;17.26;52.87;101466.72;5052118;28;20064;-61
2023/05/05 05:06:22;;;;;;;7.97;4.00;;;;;;;17.26;52.74;101465.91;5050633;28;20065;-62
2023/05/05 05:08:50;;;;;;;10.23;5.13;;;;;;;17.23;52.76;101469.94;5056590;28;20065;-62
2023/05/05 05:11:18;;;;;;;5.45;3.60;;;;;;;17.22;52.71;101466.41;5052415;28;20126;-61
2023/05/05 05:13:46;;;;;;;6.20;4.07;;;;;;;17.20;52.58;101459.56;5043853;28;20155;-61
2023/05/05 05:16:14;;;;;;;5.95;4.10;;;;;;;17.18;52.93;101459.81;5057215;28;20083;-62
2023/05/05 05:18:42;;;;;;;7.88;4.00;;;;;;;17.17;52.98;101460.06;5049435;28;20053;-61
2023/05/05 05:21:10;;;;;;;6.78;3.90;;;;;;;17.15;52.80;101463.03;5046963;28;20068;-62
2023/05/05 05:23:39;;;;;;;7.63;4.80;;;;;;;17.14;53.01;101472.25;5054992;28;20412;-62
2023/05/05 05:26:07;;;;;;;7.18;4.07;;;;;;;17.14;52.88;101474.97;5051704;28;20061;-64
2023/05/05 05:28:35;;;;;;;4.57;3.72;;;;;;;17.13;52.84;101489.63;5050972;28;20059;-63
2023/05/05 05:31:03;;;;;;;6.03;3.97;;;;;;;17.12;52.76;101490.72;5052621;28;20415;-62
2023/05/05 05:33:31;;;;;;;6.20;3.97;;;;;;;17.11;52.90;101486.34;5046049;28;20313;-63
2023/05/05 05:35:59;;;;;;;9.55;4.03;;;;;;;17.09;52.77;101488.50;5056007;28;20080;-63
2023/05/05 05:38:26;;;;;;;5.35;4.00;;;;;;;17.10;52.90;101500.19;5052966;28;20051;-62
2023/05/05 05:40:55;;;;;;;4.40;3.25;;;;;;;17.12;52.69;101500.75;5046925;28;20041;-62
2023/05/05 05:43:23;;;;;;;5.72;3.97;;;;;;;17.11;52.73;101505.34;5051113;28;20390;-63
2023/05/05 05:45:51;;;;;;;5.90;3.13;;;;;;;17.15;52.77;101513.84;5055290;28;20132;-63
2023/05/05 05:48:20;;;;;;;5.13;3.70;;;;;;;17.16;52.68;101535.31;5052265;28;20049;-63
2023/05/05 05:50:48;;;;;;;6.03;3.83;;;;;;;17.09;52.60;101525.69;5048709;28;20049;-63
2023/05/05 05:53:16;;;;;;;6.07;3.67;;;;;;;17.15;52.64;101536.38;5050144;28;20055;-63
2023/05/05 05:55:46;;;;;;;5.13;4.15;;;;;;;17.16;52.93;101537.22;5058509;28;20073;-63
2023/05/05 05:58:15;;;;;;;6.03;4.10;;;;;;;17.17;52.60;101549.72;5050152;28;20097;-62
2023/05/05 06:00:43;;;;;;;5.82;4.07;;;;;;;17.18;52.74;101554.91;5051830;28;20108;-64
2023/05/05 06:03:11;;;;;;;4.90;3.33;;;;;;;17.20;52.73;101562.81;5045873;28;20064;-63
2023/05/05 06:05:39;;;;;;;7.82;3.65;;;;;;;17.20;53.01;101566.34;5049281;28;20063;-65
2023/05/05 06:08:07;;;;;;;5.75;3.80;;;;;;;17.22;52.96;101566.91;5052956;28;20052;-62
2023/05/05 06:10:34;;;;;;;6.88;3.58;;;;;;;17.25;52.92;101571.03;5039737;28;20057;-61
2023/05/05 06:13:02;;;;;;;5.63;3.63;;;;;;;17.27;52.97;101568.06;5041745;28;20045;-61
2023/05/05 06:15:31;;;;;;;5.10;3.75;;;;;;;17.30;52.82;101571.09;5047466;28;20058;-61
2023/05/05 06:17:59;;;;;;;5.43;3.70;;;;;;;17.33;52.95;101572.50;5046731;28;20083;-61
2023/05/05 06:20:27;;;;;;;6.80;3.70;;;;;;;17.36;52.97;101574.69;5049495;28;20057;-61
2023/05/05 06:22:55;;;;;;;4.57;3.47;;;;;;;17.39;53.02;101576.91;5048778;28;20354;-61
2023/05/05 06:25:22;;;;;;;9.20;3.42;;;;;;;17.42;52.93;101566.38;5053280;28;20048;-61
2023/05/05 06:27:50;;;;;;;6.03;3.28;;;;;;;17.37;52.86;101558.13;5040343;28;20057;-59
2023/05/05 06:30:18;;;;;;;5.30;3.40;;;;;;;17.47;53.10;101569.16;5054464;28;20060;-58
2023/05/05 06:32:47;;;;;;;5.57;3.63;;;;;;;17.48;53.19;101564.53;5053776;28;20136;-59
2023/05/05 06:35:15;;;;;;;7.00;3.03;;;;;;;17.50;53.16;101562.41;5059515;28;20083;-58
2023/05/05 06:37:43;;;;;;;5.28;3.20;;;;;;;17.53;53.28;101567.34;5047328;28;20059;-64
2023/05/05 06:40:11;;;;;;;4.10;2.80;;;;;;;17.54;53.23;101566.25;5049202;28;20165;-61
2023/05/05 06:42:40;;;;;;;6.28;3.10;;;;;;;17.56;53.44;101561.41;5045227;28;20045;-60
2023/05/05 06:45:08;;;;;;;5.80;3.40;;;;;;;17.57;53.57;101566.59;5042581;28;20374;-60
2023/05/05 06:47:36;;;;;;;8.85;3.53;;;;;;;17.58;53.55;101561.97;5050010;28;20054;-59
2023/05/05 06:50:07;;;;;;;8.95;3.10;;;;;;;17.61;53.58;101563.38;5046117;28;20472;-64
2023/05/05 06:52:35;;;;;;;7.15;3.85;;;;;;;17.63;53.74;101572.09;5047200;28;20053;-60
2023/05/05 06:55:03;;;;;;;8.00;3.63;;;;;;;17.64;53.97;101562.88;5044171;28;20061;-60
2023/05/05 06:57:31;;;;;;;5.25;3.50;;;;;;;17.65;53.96;101568.03;5042877;28;20136;-61
2023/05/05 06:59:58;;;;;;;5.47;2.90;;;;;;;17.67;54.02;101565.94;5044011;28;20109;-60
2023/05/05 07:02:26;;;;;;;6.97;3.63;;;;;;;17.68;54.15;101569.47;5048637;28;20045;-60
2023/05/05 07:04:55;;;;;;;6.93;3.45;;;;;;;17.70;54.38;101573.59;5047540;28;20045;-62
2023/05/05 07:07:24;;;;;;;8.30;3.08;;;;;;;17.71;54.31;101577.13;5056676;28;20132;-60
2023/05/05 07:09:52;;;;;;;4.90;3.42;;;;;;;17.72;54.18;101582.31;5056367;28;20153;-62
2023/05/05 07:12:19;;;;;;;4.50;3.10;;;;;;;17.74;54.47;101588.31;5052996;28;20081;-60
2023/05/05 07:14:47;;;;;;;5.10;3.28;;;;;;;17.74;54.39;101585.59;5056903;28;20075;-60
2023/05/05 07:17:15;;;;;;;7.20;2.97;;;;;;;17.75;54.31;101591.88;5052325;28;20664;-59
2023/05/05 07:19:43;;;;;;;4.60;3.10;;;;;;;17.74;54.37;101591.03;5051604;28;20053;-60
2023/05/05 07:22:10;;;;;;;5.18;3.10;;;;;;;17.74;54.56;101592.94;5059995;28;20088;-62
2023/05/05 07:24:40;;;;;;;4.68;3.25;;;;;;;17.74;54.25;101599.19;5050876;28;20056;-61
2023/05/05 07:27:08;;;;;;;8.20;3.35;;;;;;;17.73;54.53;101602.16;5059608;28;20049;-61
2023/05/05 07:29:35;;;;;;;6.53;2.88;;;;;;;17.72;54.44;101603.25;5059607;28;20049;-61
2023/05/05 07:32:03;;;;;;;4.53;2.80;;;;;;;17.71;54.30;101596.16;5055512;28;20132;-61
2023/05/05 07:34:33;;;;;;;3.38;2.42;;;;;;;17.70;54.45;101591.78;5054763;28;20320;-62
2023/05/05 07:37:02;;;;;;;4.10;2.78;;;;;;;17.69;54.49;101590.16;5049752;28;20111;-61
2023/05/05 07:39:30;;;;;;;3.97;2.65;;;;;;;17.68;54.39;101586.59;5051691;28;20073;-62
2023/05/05 07:42:00;;;;;;;4.25;2.70;;;;;;;17.67;54.39;101581.41;5051867;28;20083;-62
2023/05/05 07:44:28;;;;;;;3.95;2.45;;;;;;;17.67;54.51;101582.25;5053219;28;20095;-62
2023/05/05 07:46:55;;;;;;;5.15;3.03;;;;;;;17.66;54.59;101577.88;5050015;28;20045;-61
2023/05/05 07:49:23;;;;;;;3.78;2.85;;;;;;;17.60;54.40;101567.97;5057411;28;20048;-61
2023/05/05 07:51:51;;;;;;;8.07;4.47;;;;;;;17.65;54.76;101573.47;5049601;28;20073;-62
2023/05/05 07:54:19;;;;;;;5.07;3.30;;;;;;;17.66;54.61;101580.59;5044310;28;20037;-62
2023/05/05 07:56:47;;;;;;;6.78;3.10;;;;;;;17.65;54.62;101568.03;5047317;28;20491;-62
2023/05/05 07:59:16;;;;;;;4.55;2.83;;;;;;;17.66;54.58;101558.03;5046299;28;20084;-60
2023/05/05 08:01:44;;;;;;;8.60;3.05;;;;;;;17.66;54.52;101555.31;5046492;28;20139;-61
2023/05/05 08:04:12;;;;;;;4.32;2.75;;;;;;;17.66;54.68;101577.06;5045884;28;20038;-60
2023/05/05 08:06:39;;;;;;;7.20;2.53;;;;;;;17.67;54.69;101570.53;5051962;28;20102;-60
2023/05/05 08:09:07;;;;;;;4.60;2.85;;;;;;;17.68;54.87;101562.13;5045789;28;20088;-62
2023/05/05 08:11:35;;;;;;;6.15;3.00;;;;;;;17.68;55.05;101573.00;5046078;28;20105;-60
2023/05/05 08:14:03;;;;;;;5.63;3.22;;;;;;;17.68;55.19;101570.28;5039600;28;20048;-59
2023/05/05 08:16:32;;;;;;;8.65;3.00;;;;;;;17.70;55.07;101576.31;5039154;28;20136;-60
2023/05/05 08:19:00;;;;;;;7.30;3.08;;;;;;;17.72;54.93;101584.22;5057804;28;20072;-59
2023/05/05 08:21:27;;;;;;;5.22;3.15;;;;;;;17.73;55.08;101575.81;5044431;28;20063;-59
2023/05/05 08:23:55;;;;;;;4.75;2.92;;;;;;;17.75;55.07;101583.69;5052385;28;20109;-59
2023/05/05 08:26:23;;;;;;;5.63;3.08;;;;;;;17.77;55.07;101581.56;5041985;28;20160;-59
2023/05/05 08:28:53;;;;;;;5.43;2.55;;;;;;;17.78;55.15;101584.03;5048757;28;20132;-61
2023/05/05 08:31:21;;;;;;;6.25;2.60;;;;;;;17.80;55.05;101572.91;5055356;28;20051;-60
2023/05/05 08:33:50;;;;;;;5.32;2.58;;;;;;;17.82;54.92;101577.00;5063409;28;20045;-61
2023/05/05 08:36:18;;;;;;;4.50;2.50;;;;;;;17.83;54.98;101569.69;5048369;28;20063;-61
2023/05/05 08:38:46;;;;;;;6.25;3.13;;;;;;;17.81;54.86;101571.81;5061618;28;20179;-60
2023/05/05 08:41:17;;;;;;;6.40;3.35;;;;;;;17.83;54.91;101578.66;5055185;28;20057;-60
2023/05/05 08:43:46;;;;;;;5.00;3.10;;;;;;;17.84;54.84;101572.13;5055726;28;20073;-60
2023/05/05 08:46:14;;;;;;;5.65;2.65;;;;;;;17.85;54.88;101576.50;5061454;28;20076;-60
2023/05/05 08:48:44;;;;;;;4.60;2.40;;;;;;;17.87;54.93;101576.25;5062973;28;20049;-61
2023/05/05 08:51:17;;;;;;;4.45;2.20;;;;;;;17.88;54.95;101580.63;5060128;28;20055;-61
2023/05/05 08:53:58;;;;;;;4.00;2.70;;;;;;;17.89;54.75;101577.66;5061421;28;20109;-60
2023/05/05 08:56:27;;;;;;;4.72;2.63;;;;;;;17.91;54.91;101577.38;5059678;28;20132;-61
2023/05/05 08:58:57;;;;;;;5.55;2.25;;;;;;;17.93;54.80;101577.13;5062584;28;20081;-60
2023/05/05 09:01:26;;;;;;;3.65;2.20;;;;;;;17.93;54.83;101575.25;5059536;28;20048;-60
2023/05/05 09:03:54;;;;;;;4.38;2.45;;;;;;;17.95;54.79;101575.00;5055565;28;20150;-59
2023/05/05 09:06:25;;;;;;;4.03;2.03;;;;;;;17.96;54.95;101573.91;5053805;28;20444;-60
2023/05/05 09:08:53;;;;;;;4.18;2.42;;;;;;;17.97;54.84;101576.38;5055010;28;20051;-60
2023/05/05 09:11:23;;;;;;;6.25;2.53;;;;;;;17.99;54.88;101578.84;5059320;28;20044;-61
2023/05/05 09:13:50;;;;;;;5.07;2.47;;;;;;;17.99;55.12;101574.22;5058014;28;20080;-60
2023/05/05 09:16:18;;;;;;;4.50;2.42;;;;;;;18.00;54.76;101580.50;5058563;28;20120;-60
2023/05/05 09:18:46;;;;;;;2.97;1.90;;;;;;;18.01;54.99;101582.97;5050045;28;20069;-60
2023/05/05 09:21:21;;;;;;;5.47;2.53;;;;;;;18.04;55.22;101576.19;5059559;28;20121;-61
2023/05/05 09:24:07;;;;;;;3.85;2.33;;;;;;;18.06;55.20;101574.84;5059989;28;20451;-60
2023/05/05 09:26:38;;;;;;;3.88;2.83;;;;;;;18.08;55.44;101583.59;5060413;28;20099;-60
2023/05/05 09:29:06;;;;;;;3.72;1.98;;;;;;;18.12;55.41;101578.47;5049002;28;20136;-60
2023/05/05 09:31:35;;;;;;;3.33;1.70;;;;;;;18.14;55.45;101573.59;5047883;28;20289;-60
2023/05/05 09:34:14;;;;;;;3.22;1.85;;;;;;;18.18;55.45;101588.31;5060071;28;20075;-60
2023/05/05 09:36:43;;;;;;;4.60;2.28;;;;;;;18.19;55.25;101577.19;5052046;28;20059;-60
2023/05/05 09:39:12;;;;;;;3.70;1.90;;;;;;;18.23;55.16;101590.28;5047019;28;20056;-60
2023/05/05 09:41:41;;;;;;;3.40;1.67;;;;;;;18.25;55.08;101590.84;5049271;28;20055;-60
2023/05/05 09:44:09;;;;;;;5.20;2.22;;;;;;;18.27;54.99;101578.63;5053472;28;20063;-60
2023/05/05 09:46:36;;;;;;;4.38;1.80;;;;;;;18.29;55.25;101581.09;5055457;28;20053;-60
2023/05/05 09:49:18;;;;;;;3.10;1.90;;;;;;;18.29;55.18;101573.75;5042146;28;20057;-61
2023/05/05 09:51:46;;;;;;;4.22;2.08;;;;;;;18.31;55.47;101582.50;5051183;28;20322;-60
2023/05/05 09:54:23;;;;;;;3.67;2.00;;;;;;;18.31;55.11;101577.06;5053402;28;20040;-60
2023/05/05 09:56:52;;;;;;;5.85;2.55;;;;;;;18.39;54.80;101573.06;5048618;28;20842;-60
2023/05/05 09:59:20;;;;;;;4.50;2.08;;;;;;;18.38;54.91;101576.84;5059098;28;20056;-60
2023/05/05 10:01:48;;;;;;;4.47;2.10;;;;;;;18.40;54.75;101571.97;5044903;28;20071;-60
2023/05/05 10:04:24;;;;;;;4.32;2.00;;;;;;;18.41;54.81;101574.44;5054179;28;20735;-59
2023/05/05 10:06:52;;;;;;;2.63;1.52;;;;;;;18.42;55.04;101573.38;5047521;28;20049;-60
2023/05/05 10:09:23;;;;;;;4.57;1.90;;;;;;;18.44;54.69;101575.81;5053349;28;20057;-60
2023/05/05 10:11:51;;;;;;;2.63;1.58;;;;;;;18.47;54.16;101583.47;5053113;28;20056;-59
2023/05/05 10:14:19;;;;;;;4.43;1.83;;;;;;;18.45;54.44;101578.28;5045975;28;20044;-59
2023/05/05 10:16:49;;;;;;;3.78;1.92;;;;;;;18.48;54.27;101587.84;5058532;28;20071;-61
2023/05/05 10:19:18;;;;;;;3.10;1.70;;;;;;;18.47;54.55;101583.47;5047886;28;20045;-60
2023/05/05 10:21:48;;;;;;;2.42;1.48;;;;;;;18.44;54.51;101584.00;5053768;28;20048;-61
2023/05/05 10:24:21;;;;;;;4.03;2.25;;;;;;;18.43;54.66;101577.72;5053756;28;20053;-60
2023/05/05 10:26:53;;;;;;;4.78;2.22;;;;;;;18.41;54.71;101579.88;5055573;28;20049;-61
2023/05/05 10:29:30;;;;;;;4.88;1.83;;;;;;;18.41;54.99;101579.06;5051348;28;20157;-59
2023/05/05 10:32:04;;;;;;;4.95;2.10;;;;;;;18.41;54.98;101584.50;5040760;28;20104;-59
2023/05/05 10:34:53;;;;;;;3.65;2.10;;;;;;;18.42;55.13;101588.88;5053694;28;20368;-60
2023/05/05 10:37:22;;;;;;;2.88;1.75;;;;;;;18.41;55.36;101579.88;5054672;28;20064;-60
2023/05/05 10:39:51;;;;;;;3.97;1.77;;;;;;;18.41;55.20;101590.78;5052814;28;20055;-61
2023/05/05 10:42:22;;;;;;;2.65;1.58;;;;;;;18.41;55.46;101590.78;5039935;28;20045;-59
2023/05/05 10:44:50;;;;;;;4.88;2.13;;;;;;;18.40;55.41;101589.13;5047583;28;20091;-59
2023/05/05 10:47:20;;;;;;;5.97;2.10;;;;;;;18.38;55.48;101594.00;5045654;28;20140;-61
2023/05/05 10:49:55;;;;;;;6.45;2.40;;;;;;;18.38;55.93;101587.75;5059068;28;20044;-59
2023/05/05 10:52:27;;;;;;;4.03;1.70;;;;;;;18.38;55.78;101594.00;5054080;28;20049;-59
2023/05/05 10:55:03;;;;;;;3.33;1.70;;;;;;;18.38;55.83;101598.63;5047505;28;20160;-59
2023/05/05 10:57:36;;;;;;;3.30;2.30;;;;;;;18.38;56.02;101590.47;5050133;28;20173;-60
2023/05/05 11:00:06;;;;;;;5.40;1.85;;;;;;;18.38;55.96;101601.34;5051075;28;20073;-59
2023/05/05 11:02:35;;;;;;;5.55;1.85;;;;;;;18.42;55.20;101603.31;5052759;28;20061;-59
2023/05/05 11:05:08;;;;;;;4.07;1.52;;;;;;;18.44;55.19;101619.38;5050295;28;20041;-60
2023/05/05 11:07:36;;;;;;;5.93;1.90;;;;;;;18.41;56.10;101631.59;5045480;28;20060;-59
2023/05/05 11:10:05;;;;;;;3.85;1.70;;;;;;;18.41;55.69;101622.59;5046839;28;20093;-59
2023/05/05 11:13:13;;;;;;;3.10;1.50;;;;;;;18.33;56.04;101599.38;5054183;28;20041;-59
2023/05/05 11:15:41;;;;;;;5.07;1.88;;;;;;;18.37;56.35;101610.59;5053318;28;20083;-59
2023/05/05 11:18:29;;;;;;;6.10;2.00;;;;;;;18.37;56.50;101614.13;5054485;28;20049;-59
2023/05/05 11:21:17;;;;;;;3.55;1.98;;;;;;;18.34;56.60;101611.91;5059249;28;20049;-60
2023/05/05 11:23:46;;;;;;;4.18;1.98;;;;;;;18.32;56.85;101605.91;5045822;28;20046;-60
2023/05/05 11:26:15;;;;;;;4.40;1.83;;;;;;;18.31;56.92;101600.72;5060382;28;20049;-60
2023/05/05 11:29:04;;;;;;;8.48;1.95;;;;;;;18.27;57.63;101597.69;5045335;28;20048;-60
2023/05/05 11:31:32;;;;;;;4.22;1.38;;;;;;;18.25;57.95;101596.31;5054241;28;20144;-60
2023/05/05 11:34:25;;;;;;;5.25;1.55;;;;;;;18.21;58.00;101604.97;5046797;28;20486;-60
2023/05/05 11:36:57;;;;;;;3.95;1.80;;;;;;;18.21;57.60;101599.53;5051329;28;20054;-60